Time;durP1;ratioP1;P1;durP2;ratioP2;P2;SDS_P1;SDS_P2;PMS_P1;PMS_P2;Temp;Humidity;BMP_temperature;BMP_pressure;BME280_temperature;BME280_humidity;BME280_pressure;Samples;Min_cycle;Max_cycle;Signal;HPM_P1;HPM_P2
2021/09/24 00:01:46;;;;;;;;;;;20.60;85.20;;;;;;5072182;28;19908;-69
2021/09/24 00:04:13;;;;;;;;;;;20.70;84.90;;;;;;5072131;28;19952;-69
2021/09/24 00:06:40;;;;;;;;;;;20.70;84.70;;;;;;5090393;28;19998;-70
2021/09/24 00:09:06;;;;;;;;;;;20.60;85.70;;;;;;5094206;28;20405;-69
2021/09/24 00:11:33;;;;;;;;;;;20.60;86.30;;;;;;5096194;28;19908;-69
2021/09/24 00:14:00;;;;;;;;;;;20.60;85.90;;;;;;5096294;28;19912;-69
2021/09/24 00:16:27;;;;;;;;;;;20.70;85.20;;;;;;5094868;28;20362;-69
2021/09/24 00:18:54;;;;;;;;;;;20.70;85.00;;;;;;5094850;28;20411;-69
2021/09/24 00:21:20;;;;;;;;;;;20.70;85.10;;;;;;5096422;28;19931;-68
2021/09/24 00:23:48;;;;;;;;;;;20.90;85.40;;;;;;5096055;28;19955;-69
2021/09/24 00:26:15;;;;;;;;;;;21.10;83.10;;;;;;5094776;28;19935;-67
2021/09/24 00:28:41;;;;;;;;;;;21.20;83.50;;;;;;5096092;28;20433;-68
2021/09/24 00:31:08;;;;;;;;;;;21.20;82.60;;;;;;5096136;28;19908;-70
2021/09/24 00:33:35;;;;;;;;;;;21.20;83.00;;;;;;5095660;28;19908;-69
2021/09/24 00:36:01;;;;;;;;;;;21.30;82.30;;;;;;5095107;28;19919;-69
2021/09/24 00:38:28;;;;;;;;;;;21.40;82.80;;;;;;5095757;28;19916;-69
2021/09/24 00:40:55;;;;;;;;;;;21.50;81.00;;;;;;5095871;28;19908;-70
2021/09/24 00:43:21;;;;;;;;;;;21.70;81.70;;;;;;5095742;28;20017;-70
2021/09/24 00:45:48;;;;;;;;;;;21.80;80.40;;;;;;5095324;28;20359;-71
2021/09/24 00:48:15;;;;;;;;;;;21.80;81.60;;;;;;5095548;28;20373;-70
2021/09/24 00:50:41;;;;;;;;;;;21.80;80.60;;;;;;5095316;28;19921;-70
2021/09/24 00:53:10;;;;;;;;;;;21.80;80.50;;;;;;5095644;28;20282;-70
2021/09/24 00:55:37;;;;;;;;;;;21.90;80.40;;;;;;5094997;28;19915;-70
2021/09/24 00:58:04;;;;;;;;;;;22.10;80.80;;;;;;5095847;28;19966;-71
2021/09/24 01:00:31;;;;;;;;;;;22.40;80.20;;;;;;5094084;28;20278;-70
2021/09/24 01:02:57;;;;;;;;;;;22.50;78.30;;;;;;5093821;28;20297;-70
2021/09/24 01:05:24;;;;;;;;;;;22.60;78.00;;;;;;5085607;28;20057;-69
2021/09/24 01:07:51;;;;;;;;;;;22.80;77.90;;;;;;5074585;28;19964;-69
2021/09/24 01:10:18;;;;;;;;;;;23.10;78.40;;;;;;5074959;28;20349;-69
2021/09/24 01:12:44;;;;;;;;;;;23.20;77.00;;;;;;5073039;28;19987;-69
2021/09/24 01:15:13;;;;;;;;;;;24.00;75.20;;;;;;5074914;28;19915;-71
2021/09/24 01:17:39;;;;;;;;;;;23.90;76.20;;;;;;5074645;28;20019;-70
2021/09/24 01:20:07;;;;;;;;;;;24.60;74.90;;;;;;5073958;28;19978;-68
2021/09/24 01:22:34;;;;;;;;;;;25.50;71.00;;;;;;5074926;28;20391;-70
2021/09/24 01:25:00;;;;;;;;;;;25.30;70.90;;;;;;5074554;28;20368;-70
2021/09/24 01:27:27;;;;;;;;;;;25.20;70.50;;;;;;5074392;28;19967;-69
2021/09/24 01:29:57;;;;;;;;;;;24.90;71.50;;;;;;5074384;28;19934;-71
2021/09/24 01:32:24;;;;;;;;;;;24.70;71.10;;;;;;5075006;28;20351;-70
2021/09/24 01:34:51;;;;;;;;;;;24.40;72.30;;;;;;5075394;28;19936;-71
2021/09/24 01:37:17;;;;;;;;;;;24.10;72.30;;;;;;5073997;28;19955;-72
2021/09/24 01:39:44;;;;;;;;;;;23.90;72.70;;;;;;5073926;28;19909;-71
2021/09/24 01:42:11;;;;;;;;;;;23.70;73.10;;;;;;5074086;28;19931;-71
2021/09/24 01:44:37;;;;;;;;;;;23.80;73.80;;;;;;5074207;28;20011;-71
2021/09/24 01:47:04;;;;;;;;;;;23.80;72.40;;;;;;5074218;28;19917;-70
2021/09/24 01:49:31;;;;;;;;;;;23.80;73.30;;;;;;5074032;28;19916;-70
2021/09/24 01:51:58;;;;;;;;;;;23.90;71.60;;;;;;5074279;28;19908;-70
2021/09/24 01:54:24;;;;;;;;;;;23.80;71.60;;;;;;5074108;28;20008;-70
2021/09/24 01:56:51;;;;;;;;;;;23.70;71.10;;;;;;5073839;28;19908;-71
2021/09/24 01:59:18;;;;;;;;;;;23.50;71.40;;;;;;5073991;28;19909;-70
2021/09/24 02:01:44;;;;;;;;;;;23.50;71.20;;;;;;5073980;28;20310;-70
2021/09/24 02:04:11;;;;;;;;;;;23.60;71.90;;;;;;5079044;28;20318;-70
2021/09/24 02:06:38;;;;;;;;;;;23.70;69.90;;;;;;5093161;28;19908;-71
2021/09/24 02:09:04;;;;;;;;;;;23.60;70.30;;;;;;5094271;28;19948;-71
2021/09/24 02:11:31;;;;;;;;;;;23.50;70.20;;;;;;5094010;28;19983;-70
2021/09/24 02:13:58;;;;;;;;;;;23.50;72.50;;;;;;5093710;28;19915;-71
2021/09/24 02:16:25;;;;;;;;;;;23.40;71.70;;;;;;5093771;28;19908;-71
2021/09/24 02:18:51;;;;;;;;;;;23.40;70.50;;;;;;5092602;28;20282;-71
2021/09/24 02:21:18;;;;;;;;;;;23.20;70.60;;;;;;5093965;28;19908;-70
2021/09/24 02:23:45;;;;;;;;;;;23.10;72.30;;;;;;5093721;28;19949;-71
2021/09/24 02:26:11;;;;;;;;;;;23.00;72.10;;;;;;5093207;28;19914;-71
2021/09/24 02:28:38;;;;;;;;;;;23.00;73.00;;;;;;5093882;28;20387;-70
2021/09/24 02:31:09;;;;;;;;;;;23.10;72.30;;;;;;5093862;28;20279;-70
2021/09/24 02:33:36;;;;;;;;;;;23.20;71.70;;;;;;5093682;28;20274;-71
2021/09/24 02:36:07;;;;;;;;;;;23.40;68.30;;;;;;5092763;28;19916;-71
2021/09/24 02:38:33;;;;;;;;;;;23.50;68.30;;;;;;5093633;28;20010;-70
2021/09/24 02:41:00;;;;;;;;;;;23.70;68.30;;;;;;5093403;28;19908;-71
2021/09/24 02:43:27;;;;;;;;;;;23.60;67.50;;;;;;5093633;28;19962;-70
2021/09/24 02:45:54;;;;;;;;;;;23.60;67.00;;;;;;5093020;28;19912;-70
2021/09/24 02:48:20;;;;;;;;;;;23.50;67.10;;;;;;5093326;28;19962;-70
2021/09/24 02:50:47;;;;;;;;;;;23.60;66.10;;;;;;5093401;28;20422;-70
2021/09/24 02:53:14;;;;;;;;;;;23.70;66.60;;;;;;5093121;28;19912;-70
2021/09/24 02:55:41;;;;;;;;;;;23.90;66.00;;;;;;5092646;28;19961;-70
2021/09/24 02:58:07;;;;;;;;;;;23.90;65.80;;;;;;5092901;28;19912;-70
2021/09/24 03:00:34;;;;;;;;;;;23.90;66.70;;;;;;5093311;28;20503;-70
2021/09/24 03:03:04;;;;;;;;;;;23.90;66.30;;;;;;5093160;28;19936;-70
2021/09/24 03:05:31;;;;;;;;;;;24.00;64.60;;;;;;5092506;28;19953;-70
2021/09/24 03:07:58;;;;;;;;;;;24.00;66.40;;;;;;5092507;28;19920;-70
2021/09/24 03:10:25;;;;;;;;;;;24.00;66.40;;;;;;5093761;28;19918;-71
2021/09/24 03:12:51;;;;;;;;;;;23.90;65.90;;;;;;5094480;28;19922;-70
2021/09/24 03:15:18;;;;;;;;;;;23.90;66.40;;;;;;5094224;28;20385;-71
2021/09/24 03:17:45;;;;;;;;;;;23.80;69.50;;;;;;5092779;28;20002;-70
2021/09/24 03:20:11;;;;;;;;;;;23.80;71.60;;;;;;5092741;28;19995;-70
2021/09/24 03:22:38;;;;;;;;;;;23.80;64.90;;;;;;5092723;28;19912;-70
2021/09/24 03:25:06;;;;;;;;;;;23.90;63.80;;;;;;5092489;28;20382;-71
2021/09/24 03:27:34;;;;;;;;;;;23.90;64.40;;;;;;5091967;28;20325;-70
2021/09/24 03:30:01;;;;;;;;;;;23.90;65.20;;;;;;5092399;28;19930;-70
2021/09/24 03:32:27;;;;;;;;;;;23.80;64.40;;;;;;5092709;28;19912;-70
2021/09/24 03:34:54;;;;;;;;;;;23.90;64.20;;;;;;5091896;28;19908;-70
2021/09/24 03:37:21;;;;;;;;;;;23.90;64.30;;;;;;5091945;28;19915;-70
2021/09/24 03:39:47;;;;;;;;;;;24.00;65.10;;;;;;5092339;28;20318;-71
2021/09/24 03:42:14;;;;;;;;;;;24.00;65.60;;;;;;5092630;28;19930;-70
2021/09/24 03:44:41;;;;;;;;;;;24.00;66.30;;;;;;5091838;28;19908;-70
2021/09/24 03:47:07;;;;;;;;;;;24.10;64.10;;;;;;5092317;28;19920;-70
2021/09/24 03:49:34;;;;;;;;;;;24.40;63.80;;;;;;5092056;28;20488;-71
2021/09/24 03:52:01;;;;;;;;;;;24.40;64.20;;;;;;5092313;28;20263;-71
2021/09/24 03:54:29;;;;;;;;;;;24.20;63.50;;;;;;5092179;28;19916;-70
2021/09/24 03:56:56;;;;;;;;;;;24.00;64.40;;;;;;5090769;28;19912;-70
2021/09/24 03:59:23;;;;;;;;;;;24.00;64.20;;;;;;5092602;28;20347;-70
2021/09/24 04:01:49;;;;;;;;;;;23.80;64.90;;;;;;5091877;28;19912;-70
2021/09/24 04:04:16;;;;;;;;;;;23.90;64.70;;;;;;5092214;28;19915;-70
2021/09/24 04:06:43;;;;;;;;;;;24.00;63.40;;;;;;5090100;28;19919;-70
2021/09/24 04:09:10;;;;;;;;;;;24.00;63.70;;;;;;5092336;28;19909;-70
2021/09/24 04:11:37;;;;;;;;;;;24.00;63.40;;;;;;5091799;28;19980;-70
2021/09/24 04:14:04;;;;;;;;;;;23.90;64.30;;;;;;5092300;28;19995;-70
2021/09/24 04:16:30;;;;;;;;;;;24.00;64.70;;;;;;5091664;28;20016;-69
2021/09/24 04:18:57;;;;;;;;;;;23.90;63.40;;;;;;5092439;28;19923;-70
2021/09/24 04:21:24;;;;;;;;;;;24.00;63.40;;;;;;5093756;28;19908;-71
2021/09/24 04:23:50;;;;;;;;;;;24.10;62.80;;;;;;5093290;28;19951;-70
2021/09/24 04:26:17;;;;;;;;;;;24.20;63.90;;;;;;5092639;28;20374;-70
2021/09/24 04:28:44;;;;;;;;;;;24.20;63.70;;;;;;5092647;28;19916;-70
2021/09/24 04:31:10;;;;;;;;;;;24.10;63.50;;;;;;5092295;28;19947;-69
2021/09/24 04:33:37;;;;;;;;;;;24.10;62.70;;;;;;5092482;28;19916;-70
2021/09/24 04:36:04;;;;;;;;;;;24.10;62.70;;;;;;5092293;28;19957;-71
2021/09/24 04:38:31;;;;;;;;;;;24.20;62.50;;;;;;5097143;28;19915;-69
2021/09/24 04:40:57;;;;;;;;;;;24.20;62.30;;;;;;5092572;28;19912;-69
2021/09/24 04:43:24;;;;;;;;;;;24.30;62.00;;;;;;5092388;28;19920;-69
2021/09/24 04:45:51;;;;;;;;;;;24.20;63.20;;;;;;5090700;28;19924;-69
2021/09/24 04:48:17;;;;;;;;;;;24.20;62.30;;;;;;5098564;28;19922;-70
2021/09/24 04:50:44;;;;;;;;;;;24.20;62.80;;;;;;5093355;28;19927;-70
2021/09/24 04:53:11;;;;;;;;;;;24.30;62.10;;;;;;5090376;28;19998;-69
2021/09/24 04:55:37;;;;;;;;;;;24.40;63.10;;;;;;5092523;28;19916;-69
2021/09/24 04:58:04;;;;;;;;;;;24.30;61.40;;;;;;5095461;28;20463;-69
2021/09/24 05:00:31;;;;;;;;;;;24.30;61.50;;;;;;5095291;28;19951;-70
2021/09/24 05:02:57;;;;;;;;;;;24.30;62.70;;;;;;5095379;28;19986;-70
2021/09/24 05:05:24;;;;;;;;;;;24.20;62.40;;;;;;5094687;28;19908;-70
2021/09/24 05:07:51;;;;;;;;;;;24.30;62.00;;;;;;5094978;28;19955;-70
2021/09/24 05:10:17;;;;;;;;;;;24.40;61.90;;;;;;5095084;28;19912;-69
2021/09/24 05:12:44;;;;;;;;;;;24.20;61.40;;;;;;5095307;28;19908;-70
2021/09/24 05:15:11;;;;;;;;;;;24.20;62.80;;;;;;5094943;28;20314;-70
2021/09/24 05:17:37;;;;;;;;;;;24.20;61.50;;;;;;5094872;28;19912;-71
2021/09/24 05:20:04;;;;;;;;;;;24.30;61.00;;;;;;5095217;28;19916;-70
2021/09/24 05:22:31;;;;;;;;;;;24.30;60.20;;;;;;5094970;28;20374;-70
2021/09/24 05:24:58;;;;;;;;;;;24.30;59.90;;;;;;5094644;28;19915;-70
2021/09/24 05:27:24;;;;;;;;;;;24.20;60.40;;;;;;5094595;28;20255;-69
2021/09/24 05:29:51;;;;;;;;;;;24.20;60.70;;;;;;5094668;28;19912;-70
2021/09/24 05:32:18;;;;;;;;;;;24.20;61.20;;;;;;5094796;28;20356;-70
2021/09/24 05:34:44;;;;;;;;;;;24.20;60.90;;;;;;5094562;28;20044;-70
2021/09/24 05:37:11;;;;;;;;;;;24.30;60.50;;;;;;5094349;28;20367;-70
2021/09/24 05:39:38;;;;;;;;;;;24.50;60.70;;;;;;5094414;28;20002;-70
2021/09/24 05:42:05;;;;;;;;;;;24.40;60.40;;;;;;5094563;28;19912;-70
2021/09/24 05:44:31;;;;;;;;;;;24.30;60.80;;;;;;5094388;28;20282;-68
2021/09/24 05:46:58;;;;;;;;;;;24.30;60.90;;;;;;5094338;28;19909;-68
2021/09/24 05:49:29;;;;;;;;;;;24.30;61.10;;;;;;5094196;28;19908;-69
2021/09/24 05:51:57;;;;;;;;;;;24.30;60.00;;;;;;5094413;28;19931;-69
2021/09/24 05:54:23;;;;;;;;;;;24.30;60.40;;;;;;5094318;28;20006;-69
2021/09/24 05:56:55;;;;;;;;;;;24.20;60.10;;;;;;5094204;28;19908;-68
2021/09/24 05:59:22;;;;;;;;;;;24.30;60.00;;;;;;5094464;28;20268;-69
2021/09/24 06:01:48;;;;;;;;;;;24.20;60.70;;;;;;5094121;28;19908;-69
2021/09/24 06:04:16;;;;;;;;;;;24.20;60.80;;;;;;5094518;28;19908;-69
2021/09/24 06:06:43;;;;;;;;;;;24.00;60.90;;;;;;5093198;28;19908;-69
2021/09/24 06:09:09;;;;;;;;;;;23.90;61.20;;;;;;5093832;28;19927;-69
2021/09/24 06:11:36;;;;;;;;;;;23.80;60.70;;;;;;5093858;28;19947;-68
2021/09/24 06:14:03;;;;;;;;;;;23.80;61.20;;;;;;5093978;28;20338;-69
2021/09/24 06:16:30;;;;;;;;;;;23.90;60.00;;;;;;5093392;28;19908;-68
2021/09/24 06:18:56;;;;;;;;;;;23.90;59.70;;;;;;5093290;28;19916;-68
2021/09/24 06:21:24;;;;;;;;;;;23.90;60.10;;;;;;5093745;28;19912;-68
2021/09/24 06:23:51;;;;;;;;;;;23.80;59.40;;;;;;5093642;28;19919;-69
2021/09/24 06:26:17;;;;;;;;;;;24.00;58.00;;;;;;5094709;28;19916;-68
2021/09/24 06:28:44;;;;;;;;;;;24.00;57.90;;;;;;5094031;28;19916;-69
2021/09/24 06:31:11;;;;;;;;;;;24.00;58.30;;;;;;5093714;28;19976;-68
2021/09/24 06:33:37;;;;;;;;;;;23.90;59.10;;;;;;5093339;28;19912;-68
2021/09/24 06:36:04;;;;;;;;;;;23.80;57.90;;;;;;5092835;28;19923;-70
2021/09/24 06:38:31;;;;;;;;;;;23.60;59.30;;;;;;5093370;28;19934;-68
2021/09/24 06:40:57;;;;;;;;;;;23.60;58.60;;;;;;5093082;28;19918;-69
2021/09/24 06:43:24;;;;;;;;;;;23.60;58.60;;;;;;5093497;28;19950;-68
2021/09/24 06:45:51;;;;;;;;;;;23.60;58.90;;;;;;5092774;28;19912;-68
2021/09/24 06:48:17;;;;;;;;;;;23.50;58.20;;;;;;5092818;28;19920;-70
2021/09/24 06:50:44;;;;;;;;;;;23.50;59.10;;;;;;5092147;28;19920;-70
2021/09/24 06:53:12;;;;;;;;;;;23.50;58.30;;;;;;5092422;28;19938;-68
2021/09/24 06:55:38;;;;;;;;;;;23.60;58.10;;;;;;5092970;28;19915;-69
2021/09/24 06:58:06;;;;;;;;;;;23.50;58.60;;;;;;5092400;28;20333;-69
2021/09/24 07:00:33;;;;;;;;;;;23.60;57.30;;;;;;5091171;28;20274;-69
2021/09/24 07:03:03;;;;;;;;;;;23.60;58.00;;;;;;5090789;28;19908;-69
2021/09/24 07:05:29;;;;;;;;;;;23.50;57.50;;;;;;5089685;28;19927;-68
2021/09/24 07:07:56;;;;;;;;;;;23.40;57.50;;;;;;5090683;28;20010;-68
2021/09/24 07:10:22;;;;;;;;;;;23.40;58.00;;;;;;5090867;28;19977;-68
2021/09/24 07:12:49;;;;;;;;;;;23.30;58.00;;;;;;5090709;28;19919;-68
2021/09/24 07:15:16;;;;;;;;;;;23.20;57.60;;;;;;5090609;28;20595;-70
2021/09/24 07:17:43;;;;;;;;;;;23.10;56.60;;;;;;5089189;28;19912;-68
2021/09/24 07:20:10;;;;;;;;;;;23.20;57.00;;;;;;5090883;28;19908;-69
2021/09/24 07:22:37;;;;;;;;;;;23.10;57.50;;;;;;5090657;28;20308;-69
2021/09/24 07:25:03;;;;;;;;;;;23.10;57.00;;;;;;5090429;28;19908;-69
2021/09/24 07:27:30;;;;;;;;;;;23.00;56.90;;;;;;5090531;28;20295;-69
2021/09/24 07:29:57;;;;;;;;;;;22.90;58.50;;;;;;5090577;28;19981;-69
2021/09/24 07:32:24;;;;;;;;;;;22.90;57.50;;;;;;5090447;28;19919;-69
2021/09/24 07:34:51;;;;;;;;;;;22.90;57.30;;;;;;5090433;28;20337;-69
2021/09/24 07:37:18;;;;;;;;;;;22.70;57.10;;;;;;5090073;28;19908;-68
2021/09/24 07:39:45;;;;;;;;;;;22.80;56.40;;;;;;5090081;28;19912;-69
2021/09/24 07:42:11;;;;;;;;;;;22.70;56.50;;;;;;5090603;28;19912;-68
2021/09/24 07:44:38;;;;;;;;;;;22.70;56.50;;;;;;5090002;28;19957;-69
2021/09/24 07:47:05;;;;;;;;;;;22.70;57.30;;;;;;5090265;28;20677;-69
2021/09/24 07:49:32;;;;;;;;;;;22.60;57.30;;;;;;5090124;28;19908;-68
2021/09/24 07:51:58;;;;;;;;;;;22.60;57.60;;;;;;5090442;28;20093;-68
2021/09/24 07:54:28;;;;;;;;;;;22.50;56.50;;;;;;5089349;28;20210;-68
2021/09/24 07:56:55;;;;;;;;;;;22.50;56.70;;;;;;5089511;28;20354;-69
2021/09/24 07:59:22;;;;;;;;;;;22.40;58.00;;;;;;5089554;28;19908;-68
2021/09/24 08:01:48;;;;;;;;;;;22.30;58.50;;;;;;5090879;28;19944;-68
2021/09/24 08:04:15;;;;;;;;;;;22.20;58.40;;;;;;5090272;28;19912;-69
2021/09/24 08:06:42;;;;;;;;;;;22.10;57.90;;;;;;5089531;28;19966;-68
2021/09/24 08:09:08;;;;;;;;;;;22.10;57.70;;;;;;5089931;28;19973;-68
2021/09/24 08:11:35;;;;;;;;;;;22.20;57.30;;;;;;5090065;28;19909;-68
2021/09/24 08:14:02;;;;;;;;;;;22.20;58.90;;;;;;5090137;28;19953;-68
2021/09/24 08:16:28;;;;;;;;;;;22.20;57.90;;;;;;5089974;28;19916;-68
2021/09/24 08:18:55;;;;;;;;;;;22.00;58.20;;;;;;5090057;28;20011;-68
2021/09/24 08:21:23;;;;;;;;;;;22.10;57.90;;;;;;5090257;28;20378;-68
2021/09/24 08:23:53;;;;;;;;;;;22.00;58.70;;;;;;5089209;28;20374;-68
2021/09/24 08:26:23;;;;;;;;;;;22.00;58.70;;;;;;5089951;28;19915;-68
2021/09/24 08:28:50;;;;;;;;;;;22.00;59.50;;;;;;5089906;28;19916;-68
2021/09/24 08:31:17;;;;;;;;;;;21.90;59.20;;;;;;5094422;28;19943;-68
2021/09/24 08:33:44;;;;;;;;;;;21.90;58.10;;;;;;5084385;28;19912;-68
2021/09/24 08:36:11;;;;;;;;;;;22.00;58.50;;;;;;5073576;28;19919;-69
2021/09/24 08:38:38;;;;;;;;;;;21.80;60.10;;;;;;5073356;28;19917;-68
2021/09/24 08:41:05;;;;;;;;;;;21.80;58.00;;;;;;5082503;28;19948;-69
2021/09/24 08:43:32;;;;;;;;;;;21.80;58.50;;;;;;5093586;28;19920;-67
2021/09/24 08:45:58;;;;;;;;;;;21.70;58.90;;;;;;5092971;28;20038;-69
2021/09/24 08:48:25;;;;;;;;;;;21.60;59.70;;;;;;5093429;28;19955;-69
2021/09/24 08:50:52;;;;;;;;;;;21.60;59.10;;;;;;5093434;28;19931;-68
2021/09/24 08:53:22;;;;;;;;;;;21.60;59.40;;;;;;5093510;28;19916;-69
2021/09/24 08:55:49;;;;;;;;;;;21.50;59.00;;;;;;5092543;28;19965;-69
2021/09/24 08:58:16;;;;;;;;;;;21.50;59.30;;;;;;5093305;28;19912;-69
2021/09/24 09:00:43;;;;;;;;;;;21.50;58.80;;;;;;5093196;28;19923;-68
2021/09/24 09:03:13;;;;;;;;;;;21.50;59.70;;;;;;5093380;28;19920;-69
2021/09/24 09:05:40;;;;;;;;;;;21.50;58.20;;;;;;5093288;28;19914;-68
2021/09/24 09:08:08;;;;;;;;;;;21.60;58.70;;;;;;5094491;28;20118;-69
2021/09/24 09:10:59;;;;;;;;;;;21.60;58.70;;;;;;5094531;28;20308;-69
2021/09/24 09:13:29;;;;;;;;;;;21.50;58.90;;;;;;5090210;28;19912;-70
2021/09/24 09:16:31;;;;;;;;;;;21.50;58.70;;;;;;5094989;28;19976;-69
2021/09/24 09:19:11;;;;;;;;;;;21.40;58.90;;;;;;5072451;28;19912;-68
2021/09/24 09:21:41;;;;;;;;;;;21.40;60.20;;;;;;5094671;28;20003;-69
2021/09/24 09:24:18;;;;;;;;;;;21.30;60.40;;;;;;5094776;28;19908;-69
2021/09/24 09:26:47;;;;;;;;;;;21.20;59.80;;;;;;5094248;28;19915;-68
2021/09/24 09:29:13;;;;;;;;;;;21.20;61.40;;;;;;5094707;28;19969;-68
2021/09/24 09:31:40;;;;;;;;;;;21.10;60.70;;;;;;5094586;28;19912;-69
2021/09/24 09:34:08;;;;;;;;;;;21.10;62.20;;;;;;5094896;28;19912;-68
2021/09/24 09:36:37;;;;;;;;;;;21.10;61.70;;;;;;5094430;28;19908;-68
2021/09/24 09:39:14;;;;;;;;;;;21.20;61.00;;;;;;5095084;28;19915;-68
2021/09/24 09:41:48;;;;;;;;;;;21.10;61.00;;;;;;5093202;28;19919;-69
2021/09/24 09:44:25;;;;;;;;;;;21.10;62.20;;;;;;5094705;28;19916;-69
2021/09/24 09:46:52;;;;;;;;;;;21.10;61.70;;;;;;5094595;28;19908;-69
2021/09/24 09:49:18;;;;;;;;;;;21.00;62.60;;;;;;5094303;28;19918;-69
2021/09/24 09:51:46;;;;;;;;;;;21.00;62.10;;;;;;5093992;28;19920;-69
2021/09/24 09:54:26;;;;;;;;;;;21.00;62.10;;;;;;5094456;28;19908;-69
2021/09/24 09:56:52;;;;;;;;;;;21.00;62.30;;;;;;5094439;28;19915;-69
2021/09/24 09:59:24;;;;;;;;;;;20.90;62.40;;;;;;5089349;28;19919;-69
2021/09/24 10:02:09;;;;;;;;;;;20.90;63.10;;;;;;5073727;28;19913;-69
2021/09/24 10:04:43;;;;;;;;;;;20.90;63.00;;;;;;5073278;28;20050;-69
2021/09/24 10:07:17;;;;;;;;;;;20.90;62.70;;;;;;5073608;28;19953;-68
2021/09/24 10:09:44;;;;;;;;;;;20.80;63.30;;;;;;5073294;28;19957;-68
2021/09/24 10:12:19;;;;;;;;;;;20.80;64.10;;;;;;5073909;28;20379;-68
2021/09/24 10:14:46;;;;;;;;;;;20.70;63.50;;;;;;5073234;28;19912;-69
2021/09/24 10:17:13;;;;;;;;;;;20.80;64.20;;;;;;5073799;28;20355;-69
2021/09/24 10:19:40;;;;;;;;;;;20.70;63.90;;;;;;5072787;28;19916;-68
2021/09/24 10:22:07;;;;;;;;;;;20.70;63.60;;;;;;5073678;28;19912;-69
2021/09/24 10:24:34;;;;;;;;;;;20.60;63.90;;;;;;5073288;28;19908;-69
2021/09/24 10:27:05;;;;;;;;;;;20.60;63.90;;;;;;5073546;28;20390;-69
2021/09/24 10:29:34;;;;;;;;;;;20.60;64.40;;;;;;5072975;28;19981;-69
2021/09/24 10:32:17;;;;;;;;;;;20.60;65.10;;;;;;5073681;28;19935;-68
2021/09/24 10:35:01;;;;;;;;;;;20.50;64.40;;;;;;5072618;28;19915;-69
2021/09/24 10:37:30;;;;;;;;;;;20.50;63.90;;;;;;5073168;28;19920;-68
2021/09/24 10:40:00;;;;;;;;;;;20.50;64.60;;;;;;5073009;28;19909;-69
2021/09/24 10:42:29;;;;;;;;;;;20.50;64.60;;;;;;5105822;28;20378;-69
2021/09/24 10:45:19;;;;;;;;;;;20.50;64.70;;;;;;5073011;28;19954;-68
2021/09/24 10:47:50;;;;;;;;;;;20.50;66.00;;;;;;5069802;28;19913;-69
2021/09/24 10:50:38;;;;;;;;;;;20.50;65.70;;;;;;5070903;28;19924;-69
2021/09/24 10:53:17;;;;;;;;;;;20.40;65.90;;;;;;5104642;28;20015;-69
2021/09/24 10:55:44;;;;;;;;;;;20.40;65.70;;;;;;5072686;28;20012;-69
2021/09/24 10:58:33;;;;;;;;;;;20.40;65.80;;;;;;5072766;28;20324;-70
2021/09/24 11:01:14;;;;;;;;;;;20.40;66.30;;;;;;5069841;28;20228;-69
2021/09/24 11:03:55;;;;;;;;;;;20.40;66.80;;;;;;5071852;28;20003;-68
2021/09/24 11:06:33;;;;;;;;;;;20.30;67.00;;;;;;5072079;28;19908;-68
2021/09/24 11:09:00;;;;;;;;;;;20.30;67.20;;;;;;5072234;28;19923;-68
2021/09/24 11:11:31;;;;;;;;;;;20.20;67.00;;;;;;5072773;28;19975;-67
2021/09/24 11:13:59;;;;;;;;;;;20.30;66.90;;;;;;5072841;28;19919;-68
2021/09/24 11:16:44;;;;;;;;;;;20.20;67.30;;;;;;5072605;28;20363;-69
2021/09/24 11:19:30;;;;;;;;;;;20.20;67.80;;;;;;5071764;28;20054;-69
2021/09/24 11:22:02;;;;;;;;;;;20.10;67.70;;;;;;5072554;28;19913;-69
2021/09/24 11:24:28;;;;;;;;;;;20.10;68.90;;;;;;5072087;28;20419;-69
2021/09/24 11:26:59;;;;;;;;;;;20.00;68.10;;;;;;5072490;28;19908;-68
2021/09/24 11:29:29;;;;;;;;;;;20.00;68.30;;;;;;5072282;28;19993;-68
2021/09/24 11:32:04;;;;;;;;;;;20.00;68.60;;;;;;5072773;28;19915;-68
2021/09/24 11:34:34;;;;;;;;;;;20.00;68.20;;;;;;5071669;28;20363;-69
2021/09/24 11:37:02;;;;;;;;;;;20.00;68.80;;;;;;5072106;28;19913;-68
2021/09/24 11:39:29;;;;;;;;;;;20.00;68.90;;;;;;5072155;28;19908;-68
2021/09/24 11:42:12;;;;;;;;;;;19.90;69.00;;;;;;5072516;28;20355;-68
2021/09/24 11:44:43;;;;;;;;;;;19.90;69.10;;;;;;5071622;28;19932;-68
2021/09/24 11:47:24;;;;;;;;;;;19.80;68.60;;;;;;5072462;28;19969;-68
2021/09/24 11:50:09;;;;;;;;;;;19.80;69.30;;;;;;5071292;28;19963;-68
2021/09/24 11:52:42;;;;;;;;;;;19.80;69.00;;;;;;5072178;28;19912;-68
2021/09/24 11:55:09;;;;;;;;;;;19.80;69.20;;;;;;5072530;28;19995;-68
2021/09/24 11:57:36;;;;;;;;;;;19.80;69.00;;;;;;5072181;28;19947;-68
2021/09/24 12:00:04;;;;;;;;;;;19.80;69.00;;;;;;5072303;28;19908;-67
2021/09/24 12:02:30;;;;;;;;;;;19.80;68.70;;;;;;5072160;28;20369;-68
2021/09/24 12:05:00;;;;;;;;;;;19.80;69.40;;;;;;5073793;28;19919;-68
2021/09/24 12:07:27;;;;;;;;;;;19.80;68.60;;;;;;5076083;28;20027;-68
2021/09/24 12:09:58;;;;;;;;;;;19.70;68.90;;;;;;5076198;28;20335;-68
2021/09/24 12:12:25;;;;;;;;;;;19.70;69.20;;;;;;5076231;28;19954;-68
2021/09/24 12:15:02;;;;;;;;;;;19.60;69.60;;;;;;5076153;28;19908;-67
2021/09/24 12:17:30;;;;;;;;;;;19.60;68.90;;;;;;5076080;28;19911;-69
2021/09/24 12:20:00;;;;;;;;;;;19.60;68.90;;;;;;5075599;28;19915;-68
2021/09/24 12:22:27;;;;;;;;;;;19.60;70.00;;;;;;5076163;28;20359;-69
2021/09/24 12:24:53;;;;;;;;;;;19.60;69.40;;;;;;5076003;28;20375;-69
2021/09/24 12:27:30;;;;;;;;;;;19.60;69.80;;;;;;5075945;28;19920;-69
2021/09/24 12:30:11;;;;;;;;;;;19.60;69.10;;;;;;5076017;28;19934;-69
2021/09/24 12:32:38;;;;;;;;;;;19.60;70.10;;;;;;5075975;28;19912;-68
2021/09/24 12:35:05;;;;;;;;;;;19.60;69.20;;;;;;5075238;28;19915;-69
2021/09/24 12:37:34;;;;;;;;;;;19.60;69.70;;;;;;5075581;28;20352;-68
2021/09/24 12:40:04;;;;;;;;;;;19.60;69.80;;;;;;5075807;28;19908;-68
2021/09/24 12:42:35;;;;;;;;;;;19.60;69.50;;;;;;5075662;28;20414;-68
2021/09/24 12:45:02;;;;;;;;;;;19.50;69.70;;;;;;5075562;28;19935;-69
2021/09/24 12:47:30;;;;;;;;;;;19.50;70.30;;;;;;5075615;28;19920;-68
2021/09/24 12:49:57;;;;;;;;;;;19.50;69.80;;;;;;5075163;28;19917;-69
2021/09/24 12:52:25;;;;;;;;;;;19.50;70.30;;;;;;5075975;28;19913;-69
2021/09/24 12:54:52;;;;;;;;;;;19.50;70.10;;;;;;5108030;28;20432;-69
2021/09/24 12:57:19;;;;;;;;;;;19.50;70.70;;;;;;5075274;28;19912;-69
2021/09/24 12:59:57;;;;;;;;;;;19.50;70.20;;;;;;5075057;28;19935;-69
2021/09/24 13:02:24;;;;;;;;;;;19.50;70.50;;;;;;5075418;28;20320;-69
2021/09/24 13:04:51;;;;;;;;;;;19.50;69.80;;;;;;5074802;28;20355;-70
2021/09/24 13:07:23;;;;;;;;;;;19.50;70.50;;;;;;5074933;28;19923;-70
2021/09/24 13:09:59;;;;;;;;;;;19.50;70.40;;;;;;5074817;28;19909;-69
2021/09/24 13:12:26;;;;;;;;;;;19.40;70.60;;;;;;5075266;28;19987;-69
2021/09/24 13:14:53;;;;;;;;;;;19.40;70.40;;;;;;5075009;28;19991;-69
2021/09/24 13:17:20;;;;;;;;;;;19.40;71.40;;;;;;5106210;28;19913;-68
2021/09/24 13:19:49;;;;;;;;;;;19.40;71.00;;;;;;5074696;28;20095;-69
2021/09/24 13:22:16;;;;;;;;;;;19.40;70.30;;;;;;5074828;28;20351;-70
2021/09/24 13:24:43;;;;;;;;;;;19.40;70.20;;;;;;5074994;28;19934;-70
2021/09/24 13:27:10;;;;;;;;;;;19.30;70.70;;;;;;5074882;28;19910;-69
2021/09/24 13:29:36;;;;;;;;;;;19.30;71.00;;;;;;5074697;28;20015;-69
2021/09/24 13:32:03;;;;;;;;;;;19.30;70.70;;;;;;5073494;28;19962;-69
2021/09/24 13:34:31;;;;;;;;;;;19.30;70.70;;;;;;5074955;28;20343;-69
2021/09/24 13:36:58;;;;;;;;;;;19.30;70.90;;;;;;5074679;28;20347;-70
2021/09/24 13:39:24;;;;;;;;;;;19.30;70.60;;;;;;5074787;28;19916;-69
2021/09/24 13:41:51;;;;;;;;;;;19.30;71.00;;;;;;5074460;28;20034;-69
2021/09/24 13:44:22;;;;;;;;;;;19.30;71.20;;;;;;5074535;28;19955;-69
2021/09/24 13:46:48;;;;;;;;;;;19.30;71.50;;;;;;5074500;28;20393;-69
2021/09/24 13:49:15;;;;;;;;;;;19.30;71.10;;;;;;5073870;28;19916;-69
2021/09/24 13:51:41;;;;;;;;;;;19.20;71.30;;;;;;5074009;28;20418;-69
2021/09/24 13:54:08;;;;;;;;;;;19.30;70.80;;;;;;5074344;28;19909;-68
2021/09/24 13:56:35;;;;;;;;;;;19.30;70.90;;;;;;5074895;28;19909;-68
2021/09/24 13:59:01;;;;;;;;;;;19.20;70.90;;;;;;5074419;28;19995;-68
2021/09/24 14:01:28;;;;;;;;;;;19.30;70.90;;;;;;5106849;28;20263;-69
2021/09/24 14:03:56;;;;;;;;;;;19.30;70.70;;;;;;5073592;28;19957;-68
2021/09/24 14:06:22;;;;;;;;;;;19.30;70.70;;;;;;5074072;28;19915;-68
2021/09/24 14:08:49;;;;;;;;;;;19.30;70.90;;;;;;5073858;28;19920;-69
2021/09/24 14:11:16;;;;;;;;;;;19.30;70.90;;;;;;5074158;28;19908;-69
2021/09/24 14:13:43;;;;;;;;;;;19.30;71.70;;;;;;5073834;28;19909;-69
2021/09/24 14:16:09;;;;;;;;;;;19.20;70.50;;;;;;5073984;28;19908;-69
2021/09/24 14:18:36;;;;;;;;;;;19.20;70.50;;;;;;5073496;28;19916;-68
2021/09/24 14:21:03;;;;;;;;;;;19.20;71.20;;;;;;5074238;28;19991;-69
2021/09/24 14:23:30;;;;;;;;;;;19.20;70.90;;;;;;5073857;28;20240;-68